SWA365 KDCA-KBOS
Flight info
| Callsign | SWA365 |
|---|---|
| Flight time | 1h 12m |
| Altitude | 37000 |
| Route | SOOKI6 SWANN BROSS Q419 JFK ROBUC3 |
| Aircraft | B738/M-SDE2E3FGHIRWXY/LB1 |
Departure
| Time | 2026-05-04 23:14 |
|---|---|
| Airport | Ronald Reagan Washington National Airport (KDCA) |
Arrival
| Time | 2026-05-05 00:26 |
|---|---|
| Airport | Boston Logan International Airport (KBOS) |
| Time | Latitude | Longitude | Altitude | Speed | Heading |
|---|---|---|---|---|---|
| 2026-05-04 22:41 | 38.84678 | -77.04187 | 24 ft | 0 kts | 297° |
| 2026-05-04 23:06 | 38.84675 | -77.04172 | 29 ft | 2 kts | 262° |
| 2026-05-04 23:06 | 38.84682 | -77.04154 | 25 ft | 2 kts | 210° |
| 2026-05-04 23:06 | 38.84697 | -77.04148 | 27 ft | 2 kts | 175° |
| 2026-05-04 23:07 | 38.84704 | -77.04149 | 26 ft | 0 kts | 162° |
| 2026-05-04 23:08 | 38.84703 | -77.04148 | 26 ft | 1 kts | 161° |
| 2026-05-04 23:09 | 38.84682 | -77.04137 | 26 ft | 5 kts | 157° |
| 2026-05-04 23:09 | 38.84634 | -77.04106 | 28 ft | 9 kts | 148° |
| 2026-05-04 23:09 | 38.84601 | -77.04033 | 26 ft | 10 kts | 115° |
| 2026-05-04 23:09 | 38.84635 | -77.03965 | 26 ft | 11 kts | 27° |
| 2026-05-04 23:10 | 38.84712 | -77.03918 | 26 ft | 14 kts | 25° |
| 2026-05-04 23:10 | 38.84822 | -77.03883 | 21 ft | 19 kts | 357° |
| 2026-05-04 23:10 | 38.84965 | -77.03897 | 19 ft | 21 kts | 355° |
| 2026-05-04 23:10 | 38.85109 | -77.03912 | 21 ft | 20 kts | 356° |
| 2026-05-04 23:11 | 38.85250 | -77.03926 | 20 ft | 20 kts | 355° |
| 2026-05-04 23:11 | 38.85385 | -77.03940 | 23 ft | 19 kts | 355° |
| 2026-05-04 23:11 | 38.85517 | -77.03953 | 28 ft | 19 kts | 356° |
| 2026-05-04 23:11 | 38.85644 | -77.03965 | 30 ft | 18 kts | 355° |
| 2026-05-04 23:12 | 38.85766 | -77.03978 | 27 ft | 17 kts | 355° |
| 2026-05-04 23:12 | 38.85877 | -77.03985 | 30 ft | 13 kts | 13° |
| 2026-05-04 23:12 | 38.85907 | -77.03892 | 27 ft | 13 kts | 104° |
| 2026-05-04 23:12 | 38.85857 | -77.03846 | 27 ft | 0 kts | 176° |
| 2026-05-04 23:13 | 38.85760 | -77.03837 | 27 ft | 42 kts | 176° |
| 2026-05-04 23:13 | 38.85216 | -77.03783 | 22 ft | 113 kts | 175° |
| 2026-05-04 23:14 | 38.84603 | -77.03724 | 43 ft | 150 kts | 176° |
| 2026-05-04 23:14 | 38.83194 | -77.03566 | 1048 ft | 152 kts | 177° |
| 2026-05-04 23:14 | 38.82459 | -77.03444 | 1375 ft | 168 kts | 174° |
| 2026-05-04 23:14 | 38.81318 | -77.03158 | 2211 ft | 171 kts | 172° |
| 2026-05-04 23:15 | 38.80050 | -77.02839 | 2595 ft | 199 kts | 174° |
| 2026-05-04 23:15 | 38.78589 | -77.02527 | 2874 ft | 224 kts | 174° |
| 2026-05-04 23:15 | 38.77038 | -77.02114 | 3520 ft | 234 kts | 162° |
| 2026-05-04 23:15 | 38.75745 | -77.00821 | 4314 ft | 252 kts | 129° |
| 2026-05-04 23:16 | 38.75135 | -76.98607 | 4944 ft | 279 kts | 97° |
| 2026-05-04 23:16 | 38.75107 | -76.96098 | 5756 ft | 287 kts | 93° |
| 2026-05-04 23:16 | 38.75226 | -76.93544 | 6624 ft | 295 kts | 78° |
| 2026-05-04 23:16 | 38.76165 | -76.91198 | 7450 ft | 299 kts | 46° |
| 2026-05-04 23:17 | 38.77776 | -76.89545 | 8371 ft | 298 kts | 28° |
| 2026-05-04 23:17 | 38.79566 | -76.88195 | 9312 ft | 299 kts | 25° |
| 2026-05-04 23:17 | 38.81344 | -76.86872 | 10222 ft | 300 kts | 25° |
| 2026-05-04 23:17 | 38.83186 | -76.85479 | 10671 ft | 319 kts | 26° |
| 2026-05-04 23:18 | 38.85179 | -76.83954 | 10867 ft | 345 kts | 26° |
| 2026-05-04 23:18 | 38.87256 | -76.82212 | 11136 ft | 369 kts | 34° |
| 2026-05-04 23:18 | 38.89229 | -76.80025 | 11767 ft | 378 kts | 39° |
| 2026-05-04 23:18 | 38.90476 | -76.78524 | 12295 ft | 380 kts | 40° |
| 2026-05-04 23:19 | 38.92401 | -76.76178 | 13102 ft | 383 kts | 40° |
| 2026-05-04 23:19 | 38.94362 | -76.73818 | 13853 ft | 388 kts | 39° |
| 2026-05-04 23:19 | 38.96362 | -76.71458 | 14538 ft | 391 kts | 39° |
| 2026-05-04 23:19 | 38.98385 | -76.69104 | 15246 ft | 394 kts | 39° |
| 2026-05-04 23:20 | 39.00435 | -76.66730 | 15956 ft | 397 kts | 39° |
| 2026-05-04 23:20 | 39.02445 | -76.64333 | 16633 ft | 401 kts | 42° |
| 2026-05-04 23:20 | 39.04432 | -76.61777 | 17308 ft | 406 kts | 43° |
| 2026-05-04 23:20 | 39.06428 | -76.59174 | 17932 ft | 410 kts | 43° |
| 2026-05-04 23:21 | 39.08447 | -76.56568 | 18547 ft | 413 kts | 43° |
| 2026-05-04 23:21 | 39.10463 | -76.53916 | 19145 ft | 416 kts | 48° |
| 2026-05-04 23:21 | 39.11930 | -76.50677 | 19703 ft | 423 kts | 69° |
| 2026-05-04 23:21 | 39.12569 | -76.46955 | 20302 ft | 427 kts | 81° |
| 2026-05-04 23:22 | 39.12964 | -76.43143 | 20869 ft | 430 kts | 82° |
| 2026-05-04 23:22 | 39.13339 | -76.39345 | 21396 ft | 434 kts | 81° |
| 2026-05-04 23:22 | 39.13732 | -76.35472 | 21927 ft | 437 kts | 81° |
| 2026-05-04 23:22 | 39.14146 | -76.31581 | 22467 ft | 440 kts | 81° |
| 2026-05-04 23:23 | 39.14578 | -76.27649 | 22993 ft | 443 kts | 80° |
| 2026-05-04 23:23 | 39.15016 | -76.23692 | 23507 ft | 446 kts | 80° |
| 2026-05-04 23:23 | 39.15457 | -76.19774 | 23931 ft | 449 kts | 80° |
| 2026-05-04 23:23 | 39.15920 | -76.15778 | 24367 ft | 451 kts | 80° |
| 2026-05-04 23:24 | 39.16387 | -76.11754 | 24770 ft | 454 kts | 79° |
| 2026-05-04 23:24 | 39.16856 | -76.07714 | 25131 ft | 458 kts | 79° |
| 2026-05-04 23:24 | 39.17323 | -76.03678 | 25546 ft | 460 kts | 79° |
| 2026-05-04 23:24 | 39.17793 | -75.99585 | 25975 ft | 462 kts | 80° |
| 2026-05-04 23:25 | 39.18262 | -75.95483 | 26399 ft | 464 kts | 79° |
| 2026-05-04 23:25 | 39.18932 | -75.91419 | 26759 ft | 464 kts | 68° |
| 2026-05-04 23:25 | 39.20318 | -75.87681 | 27126 ft | 461 kts | 54° |
| 2026-05-04 23:25 | 39.22280 | -75.84442 | 27516 ft | 457 kts | 41° |
| 2026-05-04 23:26 | 39.24672 | -75.81754 | 27893 ft | 456 kts | 36° |
| 2026-05-04 23:26 | 39.27110 | -75.79176 | 28234 ft | 459 kts | 36° |
| 2026-05-04 23:26 | 39.29562 | -75.76576 | 28565 ft | 461 kts | 37° |
| 2026-05-04 23:26 | 39.32035 | -75.73916 | 28945 ft | 462 kts | 37° |
| 2026-05-04 23:27 | 39.34497 | -75.71232 | 29276 ft | 465 kts | 37° |
| 2026-05-04 23:27 | 39.36970 | -75.68515 | 29604 ft | 467 kts | 37° |
| 2026-05-04 23:27 | 39.39447 | -75.65783 | 29998 ft | 467 kts | 37° |
| 2026-05-04 23:27 | 39.41885 | -75.63093 | 30418 ft | 465 kts | 37° |
| 2026-05-04 23:28 | 39.44339 | -75.60388 | 30841 ft | 462 kts | 37° |
| 2026-05-04 23:28 | 39.46790 | -75.57693 | 31198 ft | 462 kts | 37° |
| 2026-05-04 23:28 | 39.49248 | -75.54993 | 31524 ft | 462 kts | 37° |
| 2026-05-04 23:28 | 39.51700 | -75.52300 | 31875 ft | 462 kts | 37° |
| 2026-05-04 23:29 | 39.54140 | -75.49614 | 32252 ft | 461 kts | 37° |
| 2026-05-04 23:29 | 39.56581 | -75.46923 | 32630 ft | 459 kts | 37° |
| 2026-05-04 23:29 | 39.59007 | -75.44246 | 33036 ft | 457 kts | 37° |
| 2026-05-04 23:29 | 39.61426 | -75.41575 | 33430 ft | 456 kts | 37° |
| 2026-05-04 23:30 | 39.63807 | -75.38943 | 33851 ft | 453 kts | 37° |
| 2026-05-04 23:30 | 39.66205 | -75.36294 | 34148 ft | 453 kts | 37° |
| 2026-05-04 23:30 | 39.68609 | -75.33636 | 34336 ft | 455 kts | 37° |
| 2026-05-04 23:30 | 39.71020 | -75.30968 | 34527 ft | 456 kts | 37° |
| 2026-05-04 23:31 | 39.73433 | -75.28295 | 34778 ft | 456 kts | 37° |
| 2026-05-04 23:31 | 39.75852 | -75.25610 | 35034 ft | 456 kts | 37° |
| 2026-05-04 23:31 | 39.78242 | -75.22956 | 35244 ft | 457 kts | 37° |
| 2026-05-04 23:31 | 39.80579 | -75.20059 | 35457 ft | 461 kts | 44° |
| 2026-05-04 23:32 | 39.82684 | -75.16962 | 35684 ft | 462 kts | 46° |
| 2026-05-04 23:32 | 39.84761 | -75.13761 | 35915 ft | 463 kts | 46° |
| 2026-05-04 23:32 | 39.86838 | -75.10550 | 36120 ft | 464 kts | 46° |
| 2026-05-04 23:32 | 39.88932 | -75.07353 | 36324 ft | 464 kts | 46° |
| 2026-05-04 23:33 | 39.91052 | -75.04157 | 36545 ft | 464 kts | 45° |
| 2026-05-04 23:33 | 39.93174 | -75.00983 | 36746 ft | 465 kts | 45° |
| 2026-05-04 23:33 | 39.95292 | -74.97812 | 36917 ft | 461 kts | 45° |
| 2026-05-04 23:33 | 39.97343 | -74.94662 | 36905 ft | 463 kts | 49° |
| 2026-05-04 23:34 | 40.01009 | -74.87681 | 36923 ft | 469 kts | 53° |
| 2026-05-04 23:34 | 40.04553 | -74.80491 | 36918 ft | 472 kts | 53° |
| 2026-05-04 23:35 | 40.08158 | -74.73302 | 36900 ft | 473 kts | 53° |
| 2026-05-04 23:35 | 40.11793 | -74.66134 | 36901 ft | 473 kts | 53° |
| 2026-05-04 23:36 | 40.15428 | -74.58960 | 36891 ft | 473 kts | 53° |
| 2026-05-04 23:36 | 40.19039 | -74.51844 | 36893 ft | 470 kts | 51° |
| 2026-05-04 23:37 | 40.23497 | -74.45760 | 36917 ft | 459 kts | 35° |
| 2026-05-04 23:37 | 40.28497 | -74.40551 | 36930 ft | 458 kts | 34° |
| 2026-05-04 23:38 | 40.33464 | -74.35345 | 36600 ft | 460 kts | 35° |
| 2026-05-04 23:38 | 40.35938 | -74.32711 | 36339 ft | 456 kts | 35° |
| 2026-05-04 23:38 | 40.38387 | -74.30088 | 36063 ft | 453 kts | 35° |
| 2026-05-04 23:39 | 40.40898 | -74.27392 | 35804 ft | 452 kts | 35° |
| 2026-05-04 23:39 | 40.43259 | -74.24855 | 35552 ft | 451 kts | 35° |
| 2026-05-04 23:39 | 40.45791 | -74.22134 | 35295 ft | 450 kts | 35° |
| 2026-05-04 23:39 | 40.48102 | -74.19649 | 35095 ft | 448 kts | 34° |
| 2026-05-04 23:40 | 40.50513 | -74.17054 | 34848 ft | 447 kts | 34° |
| 2026-05-04 23:40 | 40.52854 | -74.14356 | 34593 ft | 450 kts | 42° |
| 2026-05-04 23:40 | 40.54808 | -74.11115 | 34362 ft | 455 kts | 53° |
| 2026-05-04 23:40 | 40.56316 | -74.07446 | 34126 ft | 459 kts | 63° |
| 2026-05-04 23:41 | 40.57350 | -74.03450 | 33907 ft | 462 kts | 69° |
| 2026-05-04 23:41 | 40.58226 | -73.99477 | 33646 ft | 461 kts | 70° |
| 2026-05-04 23:41 | 40.59109 | -73.95415 | 33370 ft | 460 kts | 69° |
| 2026-05-04 23:41 | 40.60010 | -73.91364 | 33102 ft | 460 kts | 69° |
| 2026-05-04 23:42 | 40.60932 | -73.87330 | 32824 ft | 461 kts | 69° |
| 2026-05-04 23:42 | 40.61872 | -73.83276 | 32577 ft | 462 kts | 69° |
| 2026-05-04 23:42 | 40.62821 | -73.79244 | 32315 ft | 463 kts | 66° |
| 2026-05-04 23:42 | 40.64275 | -73.75513 | 32004 ft | 454 kts | 47° |
| 2026-05-04 23:43 | 40.66339 | -73.72398 | 31803 ft | 452 kts | 43° |
| 2026-05-04 23:43 | 40.68490 | -73.69349 | 31537 ft | 454 kts | 42° |
| 2026-05-04 23:43 | 40.70622 | -73.66330 | 31286 ft | 457 kts | 43° |
| 2026-05-04 23:43 | 40.72780 | -73.63237 | 31036 ft | 459 kts | 43° |
| 2026-05-04 23:44 | 40.74937 | -73.60109 | 30793 ft | 460 kts | 43° |
| 2026-05-04 23:44 | 40.77088 | -73.56962 | 30537 ft | 460 kts | 44° |
| 2026-05-04 23:44 | 40.79227 | -73.53817 | 30275 ft | 459 kts | 44° |
| 2026-05-04 23:44 | 40.81354 | -73.50688 | 30066 ft | 456 kts | 43° |
| 2026-05-04 23:45 | 40.83468 | -73.47577 | 29784 ft | 454 kts | 43° |
| 2026-05-04 23:45 | 40.85549 | -73.44514 | 29498 ft | 452 kts | 43° |
| 2026-05-04 23:45 | 40.87645 | -73.41425 | 29216 ft | 450 kts | 44° |
| 2026-05-04 23:45 | 40.89728 | -73.38351 | 28932 ft | 448 kts | 44° |
| 2026-05-04 23:46 | 40.91801 | -73.35288 | 28659 ft | 446 kts | 44° |
| 2026-05-04 23:46 | 40.93874 | -73.32222 | 28372 ft | 444 kts | 44° |
| 2026-05-04 23:46 | 40.95933 | -73.29174 | 28095 ft | 442 kts | 43° |
| 2026-05-04 23:46 | 40.97977 | -73.26144 | 27835 ft | 440 kts | 43° |
| 2026-05-04 23:47 | 41.00013 | -73.23123 | 27558 ft | 439 kts | 43° |
| 2026-05-04 23:47 | 41.02019 | -73.20145 | 27304 ft | 438 kts | 43° |
| 2026-05-04 23:47 | 41.04047 | -73.17131 | 27048 ft | 437 kts | 44° |
| 2026-05-04 23:47 | 41.06069 | -73.14123 | 26604 ft | 437 kts | 44° |
| 2026-05-04 23:48 | 41.08078 | -73.11130 | 26151 ft | 433 kts | 44° |
| 2026-05-04 23:48 | 41.10075 | -73.08150 | 25661 ft | 430 kts | 44° |
| 2026-05-04 23:48 | 41.12057 | -73.05191 | 25166 ft | 427 kts | 44° |
| 2026-05-04 23:48 | 41.14024 | -73.02253 | 24699 ft | 425 kts | 44° |
| 2026-05-04 23:49 | 41.15990 | -72.99314 | 24215 ft | 423 kts | 44° |
| 2026-05-04 23:49 | 41.17942 | -72.96394 | 23721 ft | 422 kts | 44° |
| 2026-05-04 23:49 | 41.19858 | -72.93524 | 23194 ft | 421 kts | 44° |
| 2026-05-04 23:49 | 41.21687 | -72.90484 | 22932 ft | 424 kts | 54° |
| 2026-05-04 23:50 | 41.23103 | -72.87042 | 22913 ft | 425 kts | 59° |
| 2026-05-04 23:50 | 41.24417 | -72.83504 | 22906 ft | 426 kts | 60° |
| 2026-05-04 23:50 | 41.25709 | -72.79951 | 22896 ft | 427 kts | 60° |
| 2026-05-04 23:50 | 41.27007 | -72.76405 | 22890 ft | 426 kts | 60° |
| 2026-05-04 23:51 | 41.28322 | -72.72864 | 22897 ft | 426 kts | 59° |
| 2026-05-04 23:51 | 41.29650 | -72.69331 | 22913 ft | 426 kts | 59° |
| 2026-05-04 23:51 | 41.30980 | -72.65818 | 22930 ft | 425 kts | 59° |
| 2026-05-04 23:51 | 41.32282 | -72.62386 | 22909 ft | 409 kts | 59° |
| 2026-05-04 23:52 | 41.33539 | -72.59066 | 22541 ft | 395 kts | 59° |
| 2026-05-04 23:52 | 41.34757 | -72.55854 | 22155 ft | 383 kts | 59° |
| 2026-05-04 23:52 | 41.35946 | -72.52722 | 21788 ft | 372 kts | 59° |
| 2026-05-04 23:52 | 41.37081 | -72.49729 | 21442 ft | 363 kts | 59° |
| 2026-05-04 23:53 | 41.38187 | -72.46802 | 21468 ft | 348 kts | 59° |
| 2026-05-04 23:53 | 41.39294 | -72.43888 | 21504 ft | 359 kts | 59° |
| 2026-05-04 23:53 | 41.40431 | -72.40895 | 21469 ft | 367 kts | 59° |
| 2026-05-04 23:53 | 41.41585 | -72.37844 | 21388 ft | 369 kts | 59° |
| 2026-05-04 23:54 | 41.42733 | -72.34794 | 21289 ft | 365 kts | 59° |
| 2026-05-04 23:54 | 41.43870 | -72.31769 | 21204 ft | 363 kts | 59° |
| 2026-05-04 23:54 | 41.44985 | -72.28803 | 21126 ft | 361 kts | 59° |
| 2026-05-04 23:54 | 41.46111 | -72.25805 | 21039 ft | 360 kts | 59° |
| 2026-05-04 23:55 | 41.47237 | -72.22807 | 20953 ft | 360 kts | 59° |
| 2026-05-04 23:55 | 41.48342 | -72.19852 | 20805 ft | 362 kts | 60° |
| 2026-05-04 23:55 | 41.50581 | -72.13750 | 20288 ft | 367 kts | 60° |
| 2026-05-04 23:56 | 41.51691 | -72.10702 | 20028 ft | 366 kts | 60° |
| 2026-05-04 23:56 | 41.52846 | -72.07547 | 19818 ft | 391 kts | 60° |
| 2026-05-04 23:56 | 41.54074 | -72.04192 | 19515 ft | 408 kts | 61° |
| 2026-05-04 23:56 | 41.55306 | -72.00809 | 19221 ft | 410 kts | 61° |
| 2026-05-04 23:57 | 41.56479 | -71.97340 | 18929 ft | 409 kts | 65° |
| 2026-05-04 23:57 | 41.57518 | -71.93801 | 18651 ft | 408 kts | 66° |
| 2026-05-04 23:57 | 41.58544 | -71.90252 | 18381 ft | 406 kts | 66° |
| 2026-05-04 23:57 | 41.59560 | -71.86792 | 18081 ft | 405 kts | 66° |
| 2026-05-04 23:58 | 41.60595 | -71.83293 | 17774 ft | 403 kts | 66° |
| 2026-05-04 23:58 | 41.61623 | -71.79816 | 17487 ft | 401 kts | 66° |
| 2026-05-04 23:58 | 41.62643 | -71.76363 | 17347 ft | 396 kts | 66° |
| 2026-05-04 23:58 | 41.63654 | -71.72936 | 17076 ft | 395 kts | 66° |
| 2026-05-04 23:59 | 41.64661 | -71.69517 | 16818 ft | 395 kts | 66° |
| 2026-05-04 23:59 | 41.65656 | -71.66132 | 16540 ft | 384 kts | 66° |
| 2026-05-04 23:59 | 41.66614 | -71.62870 | 16265 ft | 371 kts | 66° |
| 2026-05-04 23:59 | 41.67529 | -71.59748 | 16038 ft | 359 kts | 66° |
| 2026-05-05 00:00 | 41.68427 | -71.56684 | 15793 ft | 349 kts | 66° |
| 2026-05-05 00:00 | 41.68726 | -71.55660 | 15713 ft | 347 kts | 66° |
| 2026-05-05 00:00 | 41.69887 | -71.51695 | 15420 ft | 347 kts | 66° |
| 2026-05-05 00:00 | 41.70774 | -71.48664 | 15191 ft | 353 kts | 66° |
| 2026-05-05 00:01 | 41.71963 | -71.44590 | 14870 ft | 353 kts | 67° |
| 2026-05-05 00:01 | 41.72930 | -71.41579 | 14610 ft | 350 kts | 60° |
| 2026-05-05 00:01 | 41.73732 | -71.39659 | 14456 ft | 348 kts | 57° |
| 2026-05-05 00:01 | 41.74984 | -71.36892 | 14216 ft | 347 kts | 56° |
| 2026-05-05 00:02 | 41.76212 | -71.34152 | 13979 ft | 346 kts | 57° |
| 2026-05-05 00:02 | 41.77424 | -71.31367 | 13745 ft | 345 kts | 58° |
| 2026-05-05 00:02 | 41.78619 | -71.28581 | 13470 ft | 344 kts | 58° |
| 2026-05-05 00:02 | 41.79804 | -71.25799 | 13216 ft | 343 kts | 58° |
| 2026-05-05 00:03 | 41.80986 | -71.23018 | 12971 ft | 342 kts | 58° |
| 2026-05-05 00:03 | 41.82160 | -71.20259 | 12733 ft | 340 kts | 58° |
| 2026-05-05 00:03 | 41.83333 | -71.17500 | 12493 ft | 339 kts | 58° |
| 2026-05-05 00:03 | 41.84473 | -71.14815 | 12262 ft | 331 kts | 58° |
| 2026-05-05 00:04 | 41.85600 | -71.12157 | 12058 ft | 325 kts | 58° |
| 2026-05-05 00:04 | 41.86718 | -71.09555 | 11854 ft | 319 kts | 58° |
| 2026-05-05 00:04 | 41.87826 | -71.06995 | 11663 ft | 315 kts | 58° |
| 2026-05-05 00:04 | 41.88922 | -71.04465 | 11473 ft | 311 kts | 58° |
| 2026-05-05 00:05 | 41.90000 | -71.01973 | 11279 ft | 306 kts | 58° |
| 2026-05-05 00:05 | 41.91057 | -70.99524 | 11098 ft | 301 kts | 57° |
| 2026-05-05 00:05 | 41.92104 | -70.97097 | 10921 ft | 298 kts | 57° |
| 2026-05-05 00:05 | 41.93141 | -70.94693 | 10743 ft | 297 kts | 58° |
| 2026-05-05 00:06 | 41.94160 | -70.92326 | 10574 ft | 295 kts | 57° |
| 2026-05-05 00:06 | 41.95186 | -70.89939 | 10396 ft | 295 kts | 57° |
| 2026-05-05 00:06 | 41.96217 | -70.87541 | 10211 ft | 298 kts | 57° |
| 2026-05-05 00:06 | 41.97263 | -70.85104 | 10033 ft | 301 kts | 57° |
| 2026-05-05 00:07 | 41.98311 | -70.82661 | 9858 ft | 302 kts | 57° |
| 2026-05-05 00:07 | 41.99360 | -70.80213 | 9658 ft | 303 kts | 57° |
| 2026-05-05 00:07 | 42.00413 | -70.77755 | 9457 ft | 303 kts | 57° |
| 2026-05-05 00:07 | 42.01529 | -70.75385 | 9229 ft | 296 kts | 48° |
| 2026-05-05 00:08 | 42.02862 | -70.73339 | 9078 ft | 293 kts | 43° |
| 2026-05-05 00:08 | 42.04266 | -70.71343 | 8886 ft | 294 kts | 43° |
| 2026-05-05 00:08 | 42.05668 | -70.69326 | 8715 ft | 296 kts | 43° |
| 2026-05-05 00:08 | 42.07064 | -70.67272 | 8540 ft | 297 kts | 44° |
| 2026-05-05 00:09 | 42.08456 | -70.65196 | 8355 ft | 299 kts | 45° |
| 2026-05-05 00:09 | 42.09841 | -70.63125 | 8164 ft | 294 kts | 43° |
| 2026-05-05 00:09 | 42.11443 | -70.61551 | 7930 ft | 281 kts | 18° |
| 2026-05-05 00:09 | 42.13297 | -70.60830 | 7703 ft | 277 kts | 7° |
| 2026-05-05 00:10 | 42.15181 | -70.60317 | 7449 ft | 281 kts | 6° |
| 2026-05-05 00:10 | 42.17115 | -70.59810 | 7195 ft | 283 kts | 6° |
| 2026-05-05 00:10 | 42.19050 | -70.59296 | 6907 ft | 283 kts | 6° |
| 2026-05-05 00:10 | 42.20981 | -70.58774 | 6636 ft | 282 kts | 6° |
| 2026-05-05 00:11 | 42.22903 | -70.58247 | 6372 ft | 281 kts | 6° |
| 2026-05-05 00:11 | 42.24810 | -70.57718 | 6090 ft | 280 kts | 6° |
| 2026-05-05 00:11 | 42.26714 | -70.57187 | 5809 ft | 278 kts | 6° |
| 2026-05-05 00:11 | 42.28589 | -70.56663 | 5548 ft | 277 kts | 6° |
| 2026-05-05 00:12 | 42.30475 | -70.56138 | 5288 ft | 275 kts | 5° |
| 2026-05-05 00:12 | 42.32340 | -70.56162 | 5062 ft | 264 kts | 336° |
| 2026-05-05 00:12 | 42.33931 | -70.57278 | 5047 ft | 255 kts | 317° |
| 2026-05-05 00:12 | 42.35258 | -70.58855 | 5047 ft | 253 kts | 311° |
| 2026-05-05 00:13 | 42.36508 | -70.60520 | 5048 ft | 252 kts | 310° |
| 2026-05-05 00:13 | 42.37744 | -70.62192 | 5025 ft | 250 kts | 310° |
| 2026-05-05 00:13 | 42.38961 | -70.63830 | 5015 ft | 249 kts | 310° |
| 2026-05-05 00:13 | 42.40194 | -70.65479 | 5019 ft | 249 kts | 310° |
| 2026-05-05 00:14 | 42.41431 | -70.67124 | 4999 ft | 248 kts | 311° |
| 2026-05-05 00:14 | 42.42665 | -70.68761 | 5006 ft | 248 kts | 311° |
| 2026-05-05 00:14 | 42.43909 | -70.70409 | 4889 ft | 254 kts | 311° |
| 2026-05-05 00:14 | 42.45182 | -70.72092 | 4623 ft | 252 kts | 311° |
| 2026-05-05 00:15 | 42.46421 | -70.73724 | 4354 ft | 244 kts | 310° |
| 2026-05-05 00:15 | 42.47606 | -70.75284 | 4089 ft | 238 kts | 310° |
| 2026-05-05 00:15 | 42.48776 | -70.76828 | 3819 ft | 231 kts | 310° |
| 2026-05-05 00:15 | 42.49912 | -70.78327 | 3557 ft | 224 kts | 309° |
| 2026-05-05 00:16 | 42.51019 | -70.79788 | 3302 ft | 219 kts | 309° |
| 2026-05-05 00:16 | 42.52151 | -70.81120 | 3086 ft | 216 kts | 325° |
| 2026-05-05 00:16 | 42.53599 | -70.81483 | 3021 ft | 217 kts | 0° |
| 2026-05-05 00:16 | 42.55075 | -70.80998 | 3021 ft | 219 kts | 14° |
| 2026-05-05 00:17 | 42.56512 | -70.80273 | 3016 ft | 221 kts | 15° |
| 2026-05-05 00:17 | 42.57958 | -70.79532 | 3031 ft | 221 kts | 15° |
| 2026-05-05 00:17 | 42.59383 | -70.78839 | 3031 ft | 217 kts | 8° |
| 2026-05-05 00:17 | 42.60806 | -70.78885 | 3026 ft | 198 kts | 330° |
| 2026-05-05 00:18 | 42.61818 | -70.79966 | 3022 ft | 180 kts | 299° |
| 2026-05-05 00:18 | 42.62512 | -70.81392 | 3018 ft | 181 kts | 290° |
| 2026-05-05 00:18 | 42.62670 | -70.83013 | 3014 ft | 172 kts | 253° |
| 2026-05-05 00:18 | 42.62105 | -70.84434 | 3019 ft | 173 kts | 237° |
| 2026-05-05 00:19 | 42.61420 | -70.85783 | 3006 ft | 173 kts | 236° |
| 2026-05-05 00:19 | 42.60729 | -70.87120 | 3012 ft | 172 kts | 236° |
| 2026-05-05 00:19 | 42.60043 | -70.88424 | 2991 ft | 166 kts | 233° |
| 2026-05-05 00:19 | 42.59154 | -70.89322 | 3013 ft | 161 kts | 206° |
| 2026-05-05 00:20 | 42.58126 | -70.89903 | 3022 ft | 158 kts | 207° |
| 2026-05-05 00:20 | 42.57103 | -70.90461 | 3017 ft | 158 kts | 206° |
| 2026-05-05 00:20 | 42.56074 | -70.90989 | 3013 ft | 158 kts | 206° |
| 2026-05-05 00:20 | 42.55036 | -70.91504 | 3005 ft | 159 kts | 205° |
| 2026-05-05 00:21 | 42.53997 | -70.92012 | 3007 ft | 159 kts | 204° |
| 2026-05-05 00:21 | 42.52970 | -70.92511 | 3017 ft | 158 kts | 205° |
| 2026-05-05 00:21 | 42.51927 | -70.93018 | 2978 ft | 160 kts | 205° |
| 2026-05-05 00:21 | 42.50870 | -70.93533 | 2786 ft | 160 kts | 204° |
| 2026-05-05 00:22 | 42.49831 | -70.94035 | 2576 ft | 158 kts | 204° |
| 2026-05-05 00:22 | 42.48814 | -70.94528 | 2368 ft | 152 kts | 203° |
| 2026-05-05 00:22 | 42.47853 | -70.94994 | 2169 ft | 148 kts | 203° |
| 2026-05-05 00:22 | 42.46933 | -70.95440 | 2004 ft | 134 kts | 203° |
| 2026-05-05 00:23 | 42.46092 | -70.95848 | 1838 ft | 125 kts | 205° |
| 2026-05-05 00:23 | 42.45252 | -70.96258 | 1677 ft | 130 kts | 205° |
| 2026-05-05 00:23 | 42.44418 | -70.96662 | 1488 ft | 128 kts | 204° |
| 2026-05-05 00:23 | 42.43584 | -70.97069 | 1342 ft | 129 kts | 204° |
| 2026-05-05 00:24 | 42.42745 | -70.97481 | 1287 ft | 130 kts | 203° |
| 2026-05-05 00:24 | 42.41884 | -70.97879 | 1062 ft | 129 kts | 203° |
| 2026-05-05 00:24 | 42.41055 | -70.98294 | 865 ft | 129 kts | 203° |
| 2026-05-05 00:24 | 42.40178 | -70.98725 | 700 ft | 138 kts | 200° |
| 2026-05-05 00:25 | 42.39263 | -70.99172 | 520 ft | 141 kts | 200° |
| 2026-05-05 00:25 | 42.38345 | -70.99615 | 299 ft | 137 kts | 200° |
| 2026-05-05 00:25 | 42.37475 | -71.00038 | 89 ft | 131 kts | 198° |
| 2026-05-05 00:25 | 42.36666 | -71.00423 | 26 ft | 107 kts | 200° |
| 2026-05-05 00:26 | 42.36133 | -71.00682 | 21 ft | 50 kts | 199° |
| 2026-05-05 00:26 | 42.35989 | -71.00752 | 22 ft | 20 kts | 200° |
| 2026-05-05 00:26 | 42.35856 | -71.00816 | 20 ft | 20 kts | 200° |
| 2026-05-05 00:26 | 42.35818 | -71.00986 | 24 ft | 24 kts | 278° |
| 2026-05-05 00:27 | 42.35822 | -71.01020 | 23 ft | 0 kts | 279° |
| 2026-05-05 00:27 | 42.35825 | -71.01043 | 22 ft | 6 kts | 277° |
| 2026-05-05 00:27 | 42.35833 | -71.01129 | 24 ft | 13 kts | 279° |
| 2026-05-05 00:27 | 42.35908 | -71.01188 | 25 ft | 17 kts | 14° |
| 2026-05-05 00:28 | 42.36049 | -71.01116 | 24 ft | 25 kts | 19° |
| 2026-05-05 00:28 | 42.36159 | -71.01063 | 24 ft | 15 kts | 20° |
| 2026-05-05 00:28 | 42.36245 | -71.01099 | 27 ft | 15 kts | 293° |
| 2026-05-05 00:28 | 42.36293 | -71.01219 | 27 ft | 14 kts | 303° |
| 2026-05-05 00:29 | 42.36344 | -71.01331 | 25 ft | 14 kts | 302° |
| 2026-05-05 00:29 | 42.36363 | -71.01460 | 22 ft | 14 kts | 273° |
| 2026-05-05 00:29 | 42.36359 | -71.01543 | 22 ft | 6 kts | 256° |
| 2026-05-05 00:29 | 42.36357 | -71.01556 | 22 ft | 0 kts | 257° |